createdAt,value
2023-02-13T00:00:37.786Z,26.67
2023-02-13T00:03:06.473Z,28.23
2023-02-13T00:05:34.752Z,30.03
2023-02-13T00:08:04.252Z,26.70
2023-02-13T00:10:32.433Z,26.00
2023-02-13T00:13:00.570Z,28.23
2023-02-13T00:15:28.826Z,27.90
2023-02-13T00:17:56.949Z,25.13
2023-02-13T00:20:25.178Z,22.60
2023-02-13T00:22:53.331Z,24.50
2023-02-13T00:25:22.861Z,29.93
2023-02-13T00:27:53.881Z,25.73
2023-02-13T00:30:22.257Z,23.03
2023-02-13T00:32:50.402Z,22.33
2023-02-13T00:35:18.712Z,27.63
2023-02-13T00:37:46.887Z,21.40
2023-02-13T00:40:15.430Z,22.30
2023-02-13T00:42:44.925Z,22.30
2023-02-13T00:45:13.071Z,29.03
2023-02-13T00:47:41.248Z,24.30
2023-02-13T00:50:09.496Z,27.90
2023-02-13T00:52:37.629Z,24.03
2023-02-13T00:55:05.959Z,24.13
2023-02-13T00:57:34.120Z,27.20
2023-02-13T01:00:03.906Z,22.30
2023-02-13T01:02:36.052Z,22.30
2023-02-13T01:05:04.280Z,22.67
2023-02-13T01:07:32.470Z,21.67
2023-02-13T01:10:00.650Z,19.47
2023-02-13T01:12:28.798Z,21.37
2023-02-13T01:14:57.018Z,25.20
2023-02-13T01:17:26.524Z,23.93
2023-02-13T01:19:54.729Z,24.77
2023-02-13T01:22:22.887Z,23.00
2023-02-13T01:24:51.105Z,23.07
2023-02-13T01:27:19.240Z,25.33
2023-02-13T01:29:47.346Z,18.20
2023-02-13T01:32:15.612Z,23.10
2023-02-13T01:34:45.156Z,24.73
2023-02-13T01:37:13.375Z,21.07
2023-02-13T01:39:41.517Z,19.53
2023-02-13T01:42:15.013Z,22.53
2023-02-13T01:44:47.895Z,21.13
2023-02-13T01:47:18.277Z,22.87
2023-02-13T01:49:48.576Z,22.20
2023-02-13T01:52:17.346Z,23.97
2023-02-13T01:54:45.864Z,24.13
2023-02-13T01:57:15.823Z,23.30
2023-02-13T01:59:45.854Z,22.23
2023-02-13T02:02:14.541Z,22.30
2023-02-13T02:04:43.788Z,23.43
2023-02-13T02:07:15.724Z,20.43
2023-02-13T02:09:45.343Z,22.77
2023-02-13T02:12:16.516Z,19.70
2023-02-13T02:14:44.996Z,21.17
2023-02-13T02:17:13.514Z,20.83
2023-02-13T02:19:45.385Z,19.17
2023-02-13T02:22:43.496Z,22.27
2023-02-13T02:25:20.029Z,25.37
2023-02-13T02:27:59.456Z,22.43
2023-02-13T02:30:42.732Z,25.00
2023-02-13T02:33:15.944Z,22.37
2023-02-13T02:35:48.274Z,23.83
2023-02-13T02:38:23.595Z,19.50
2023-02-13T02:40:58.533Z,23.00
2023-02-13T02:43:31.494Z,23.13
2023-02-13T02:46:02.685Z,22.73
2023-02-13T02:48:51.077Z,22.37
2023-02-13T02:51:22.569Z,20.57
2023-02-13T02:53:54.877Z,24.83
2023-02-13T02:56:27.581Z,23.03
2023-02-13T02:59:15.901Z,26.27
2023-02-13T03:02:02.477Z,22.10
2023-02-13T03:04:51.250Z,25.23
2023-02-13T03:07:19.964Z,21.80
2023-02-13T03:10:10.945Z,22.97
2023-02-13T03:12:59.011Z,23.73
2023-02-13T03:15:28.362Z,24.67
2023-02-13T03:18:14.251Z,19.97
2023-02-13T03:21:04.854Z,18.87
2023-02-13T03:23:38.790Z,19.63
2023-02-13T03:26:34.039Z,19.07
2023-02-13T03:29:33.665Z,17.57
2023-02-13T03:32:09.091Z,15.03
2023-02-13T03:34:52.792Z,17.70
2023-02-13T03:37:46.223Z,17.37
2023-02-13T03:40:17.694Z,18.73
2023-02-13T03:42:47.614Z,17.03
2023-02-13T03:45:35.568Z,19.50
2023-02-13T03:48:09.692Z,16.17
2023-02-13T03:50:38.317Z,13.97
2023-02-13T03:53:09.886Z,14.90
2023-02-13T03:55:56.528Z,16.80
2023-02-13T03:58:43.502Z,14.70
2023-02-13T04:01:14.961Z,14.80
2023-02-13T04:03:47.456Z,18.00
2023-02-13T04:06:16.901Z,12.47
2023-02-13T04:08:46.406Z,14.43
2023-02-13T04:11:16.618Z,14.20
2023-02-13T04:13:47.493Z,17.87
2023-02-13T04:16:18.299Z,12.40
2023-02-13T04:18:47.023Z,14.67
2023-02-13T04:21:15.137Z,11.87
2023-02-13T04:23:43.309Z,10.90
2023-02-13T04:26:17.644Z,11.03
2023-02-13T04:28:45.814Z,14.67
2023-02-13T04:31:14.180Z,11.97
2023-02-13T04:33:42.420Z,11.50
2023-02-13T04:36:10.687Z,11.87
2023-02-13T04:38:38.832Z,10.17
2023-02-13T04:41:07.172Z,12.93
2023-02-13T04:43:37.288Z,10.40
2023-02-13T04:46:05.503Z,11.07
2023-02-13T04:48:33.655Z,12.70
2023-02-13T04:51:01.834Z,9.40
2023-02-13T04:53:29.961Z,8.10
2023-02-13T04:55:58.115Z,9.03
2023-02-13T04:58:26.281Z,12.50
2023-02-13T05:00:56.132Z,12.17
2023-02-13T05:03:24.533Z,8.87
2023-02-13T05:05:52.671Z,7.93
2023-02-13T05:08:20.841Z,8.10
2023-02-13T05:10:49.940Z,9.10
2023-02-13T05:13:21.511Z,9.97
2023-02-13T05:15:49.762Z,9.23
2023-02-13T05:18:19.279Z,8.07
2023-02-13T05:21:07.498Z,9.57
2023-02-13T05:23:34.678Z,9.00
2023-02-13T05:26:02.823Z,9.70
2023-02-13T05:28:48.946Z,7.87
2023-02-13T05:31:17.265Z,10.37
2023-02-13T05:33:46.790Z,9.33
2023-02-13T05:36:14.984Z,10.00
2023-02-13T05:38:43.109Z,10.90
2023-02-13T05:41:13.458Z,7.97
2023-02-13T05:43:41.701Z,8.10
2023-02-13T05:46:10.726Z,9.77
2023-02-13T05:48:38.910Z,6.83
2023-02-13T05:51:08.702Z,7.20
2023-02-13T05:53:36.906Z,7.67
2023-02-13T05:56:06.356Z,6.83
2023-02-13T05:58:34.630Z,8.47
2023-02-13T06:01:02.787Z,6.43
2023-02-13T06:03:31.485Z,9.00
2023-02-13T06:06:00.132Z,7.67
2023-02-13T06:08:29.673Z,8.70
2023-02-13T06:10:58.023Z,7.63
2023-02-13T06:13:26.365Z,7.20
2023-02-13T06:15:54.686Z,7.83
2023-02-13T06:18:22.852Z,8.50
2023-02-13T06:20:51.023Z,8.50
2023-02-13T06:23:19.288Z,9.13
2023-02-13T06:25:48.823Z,6.53
2023-02-13T06:28:17.038Z,8.70
2023-02-13T06:30:45.292Z,6.97
2023-02-13T06:33:13.503Z,9.33
2023-02-13T06:35:41.716Z,6.27
2023-02-13T06:38:09.913Z,7.37
2023-02-13T06:40:38.057Z,8.90
2023-02-13T06:43:07.557Z,8.23
2023-02-13T06:45:35.704Z,8.97
2023-02-13T06:48:03.859Z,8.67
2023-02-13T06:50:32.005Z,6.33
2023-02-13T06:53:00.142Z,9.60
2023-02-13T06:55:28.372Z,8.33
2023-02-13T06:57:56.522Z,6.43
2023-02-13T07:00:27.225Z,6.90
2023-02-13T07:02:55.513Z,11.30
2023-02-13T07:05:23.704Z,8.80
2023-02-13T07:07:51.855Z,6.87
2023-02-13T07:10:20.084Z,8.47
2023-02-13T07:13:03.674Z,9.83
2023-02-13T07:15:34.645Z,8.83
2023-02-13T07:18:03.025Z,9.67
2023-02-13T07:20:31.286Z,7.43
2023-02-13T07:23:00.397Z,9.17
2023-02-13T07:25:28.578Z,9.70
2023-02-13T07:27:56.712Z,9.73
2023-02-13T07:30:24.928Z,8.90
2023-02-13T07:32:54.431Z,14.37
2023-02-13T07:35:22.594Z,11.00
2023-02-13T07:37:50.759Z,9.47
2023-02-13T07:40:19.027Z,8.00
2023-02-13T07:42:47.181Z,10.43
2023-02-13T07:45:16.047Z,8.30
2023-02-13T07:47:44.225Z,7.70
2023-02-13T07:50:14.196Z,11.77
2023-02-13T07:52:42.335Z,8.17
2023-02-13T07:55:11.548Z,7.67
2023-02-13T07:57:39.763Z,10.23
2023-02-13T08:00:08.590Z,7.30
2023-02-13T08:02:36.795Z,5.53
2023-02-13T08:05:04.976Z,6.67
2023-02-13T08:07:34.495Z,6.93
2023-02-13T08:10:20.550Z,5.97
2023-02-13T08:12:48.912Z,6.13
2023-02-13T08:15:17.408Z,5.17
2023-02-13T08:17:45.543Z,5.40
2023-02-13T08:20:13.821Z,6.13
2023-02-13T08:22:43.323Z,6.83
2023-02-13T08:25:11.524Z,5.90
2023-02-13T08:27:39.990Z,7.50
2023-02-13T08:30:09.832Z,8.17
2023-02-13T08:32:53.196Z,7.57
2023-02-13T08:35:22.616Z,8.87
2023-02-13T08:37:52.145Z,9.00
2023-02-13T08:40:20.367Z,6.67
2023-02-13T08:42:48.526Z,7.33
2023-02-13T08:45:16.805Z,6.13
2023-02-13T08:47:44.988Z,8.83
2023-02-13T08:50:13.152Z,6.57
2023-02-13T08:52:41.306Z,7.53
2023-02-13T08:55:10.914Z,8.00
2023-02-13T08:57:39.099Z,6.97
2023-02-13T09:00:07.844Z,7.10
2023-02-13T09:02:36.125Z,8.00
2023-02-13T09:05:04.423Z,6.07
2023-02-13T09:07:32.548Z,8.17
2023-02-13T09:10:00.692Z,9.57
2023-02-13T09:12:30.192Z,10.10
2023-02-13T09:14:58.389Z,7.20
2023-02-13T09:17:26.655Z,9.23
2023-02-13T09:19:54.826Z,8.20
2023-02-13T09:22:22.960Z,9.23
2023-02-13T09:24:51.144Z,7.47
2023-02-13T09:27:19.303Z,9.90
2023-02-13T09:29:49.003Z,11.43
2023-02-13T09:32:17.312Z,9.97
2023-02-13T09:34:45.498Z,11.00
2023-02-13T09:37:13.674Z,12.27
2023-02-13T09:39:41.936Z,10.83
2023-02-13T09:42:17.049Z,11.00
2023-02-13T09:44:46.164Z,8.43
2023-02-13T09:47:17.862Z,10.60
2023-02-13T09:49:48.451Z,10.43
2023-02-13T09:52:16.702Z,11.07
2023-02-13T09:54:44.834Z,8.87
2023-02-13T09:57:17.217Z,6.83
2023-02-13T09:59:51.780Z,7.80
2023-02-13T10:02:28.162Z,8.63
2023-02-13T10:05:02.706Z,6.90
2023-02-13T10:07:36.845Z,8.03
2023-02-13T10:10:09.213Z,7.47
2023-02-13T10:12:42.242Z,8.67
2023-02-13T10:15:17.473Z,8.27
2023-02-13T10:17:49.654Z,6.10
2023-02-13T10:20:24.339Z,7.43
2023-02-13T10:22:53.906Z,9.17
2023-02-13T10:25:24.201Z,8.60
2023-02-13T10:27:54.940Z,9.90
2023-02-13T10:30:24.176Z,8.07
2023-02-13T10:33:11.171Z,8.00
2023-02-13T10:35:40.330Z,7.97
2023-02-13T10:38:15.573Z,6.77
2023-02-13T10:40:49.171Z,8.03
2023-02-13T10:43:21.250Z,6.97
2023-02-13T10:45:57.701Z,8.17
2023-02-13T10:48:35.586Z,7.90
2023-02-13T10:51:07.338Z,9.53
2023-02-13T10:53:43.485Z,8.40
2023-02-13T10:56:22.084Z,14.67
2023-02-13T10:58:56.210Z,8.00
2023-02-13T11:01:31.084Z,11.87
2023-02-13T11:04:06.114Z,10.43
2023-02-13T11:06:35.202Z,10.40
2023-02-13T11:09:03.549Z,8.27
2023-02-13T11:11:32.921Z,9.10
2023-02-13T11:14:11.400Z,10.50
2023-02-13T11:16:41.058Z,6.97
2023-02-13T11:19:17.892Z,6.97
2023-02-13T11:21:46.771Z,7.00
2023-02-13T11:24:19.787Z,6.33
2023-02-13T11:26:51.914Z,7.03
2023-02-13T11:29:23.961Z,7.27
2023-02-13T11:32:03.033Z,7.13
2023-02-13T11:34:34.199Z,5.57
2023-02-13T11:37:19.128Z,6.97
2023-02-13T11:39:50.205Z,6.27
2023-02-13T11:42:22.595Z,10.40
2023-02-13T11:44:52.175Z,7.13
2023-02-13T11:47:31.743Z,8.97
2023-02-13T11:50:01.815Z,10.83
2023-02-13T11:52:30.823Z,8.57
2023-02-13T11:54:59.994Z,9.30
2023-02-13T11:57:30.825Z,7.80
2023-02-13T11:59:59.315Z,5.97
2023-02-13T12:02:28.207Z,7.40
2023-02-13T12:04:57.313Z,10.50
2023-02-13T12:07:28.266Z,8.13
2023-02-13T12:10:01.759Z,7.60
2023-02-13T12:12:35.068Z,10.13
2023-02-13T12:15:04.447Z,8.93
2023-02-13T12:17:33.324Z,9.70
2023-02-13T12:20:02.272Z,8.90
2023-02-13T12:22:34.948Z,10.67
2023-02-13T12:25:21.748Z,9.93
2023-02-13T12:27:53.993Z,7.90
2023-02-13T12:30:40.140Z,10.07
2023-02-13T12:33:17.025Z,10.20
2023-02-13T12:35:50.717Z,8.53
2023-02-13T12:38:25.803Z,7.67
2023-02-13T12:41:02.877Z,9.13
2023-02-13T12:43:40.745Z,11.30
2023-02-13T12:46:12.530Z,9.40
2023-02-13T12:48:42.923Z,9.87
2023-02-13T12:51:17.682Z,7.77
2023-02-13T12:54:05.807Z,7.10
2023-02-13T12:56:43.756Z,9.93
2023-02-13T12:59:13.486Z,7.13
2023-02-13T13:01:55.997Z,10.23
2023-02-13T13:04:28.886Z,8.90
2023-02-13T13:07:07.513Z,12.33
2023-02-13T13:09:41.425Z,8.53
2023-02-13T13:12:17.033Z,11.33
2023-02-13T13:14:49.290Z,7.13
2023-02-13T13:17:26.172Z,8.40
2023-02-13T13:19:57.583Z,10.13
2023-02-13T13:22:30.348Z,7.77
2023-02-13T13:25:05.480Z,8.50
2023-02-13T13:27:34.861Z,10.23
2023-02-13T13:30:05.925Z,13.10
2023-02-13T13:32:35.512Z,6.17
2023-02-13T13:35:03.881Z,8.87
2023-02-13T13:37:35.377Z,7.73
2023-02-13T13:40:10.184Z,8.73
2023-02-13T13:42:41.661Z,9.83
2023-02-13T13:45:27.286Z,8.47
2023-02-13T13:48:15.958Z,10.13
2023-02-13T13:50:44.518Z,8.83
2023-02-13T13:53:14.674Z,8.07
2023-02-13T13:56:04.910Z,6.97
2023-02-13T13:58:35.063Z,12.00
2023-02-13T14:01:18.132Z,6.57
2023-02-13T14:03:46.642Z,6.40
2023-02-13T14:06:15.790Z,10.97
2023-02-13T14:08:58.820Z,9.00
2023-02-13T14:11:29.897Z,7.90
2023-02-13T14:13:58.074Z,7.80
2023-02-13T14:16:40.182Z,8.23
2023-02-13T14:19:22.794Z,7.80
2023-02-13T14:21:50.974Z,8.10
2023-02-13T14:24:20.139Z,8.00
2023-02-13T14:27:04.787Z,6.40
2023-02-13T14:29:34.520Z,7.67
2023-02-13T14:32:17.591Z,6.63
2023-02-13T14:34:51.534Z,8.27
2023-02-13T14:37:30.056Z,6.90
2023-02-13T14:40:17.351Z,6.37
2023-02-13T14:42:48.157Z,8.10
2023-02-13T14:45:17.936Z,7.93
2023-02-13T14:47:50.923Z,9.87
2023-02-13T14:50:21.490Z,9.97
2023-02-13T14:52:50.092Z,9.83
2023-02-13T14:55:22.383Z,8.87
2023-02-13T14:57:54.071Z,11.17
2023-02-13T15:00:25.616Z,11.33
2023-02-13T15:02:55.744Z,9.60
2023-02-13T15:05:26.045Z,8.70
2023-02-13T15:07:57.623Z,9.53
2023-02-13T15:10:31.717Z,9.87
2023-02-13T15:13:02.072Z,10.43
2023-02-13T15:15:32.007Z,10.30
2023-02-13T15:18:01.924Z,11.03
2023-02-13T15:20:31.968Z,9.87
2023-02-13T15:23:00.237Z,12.80
2023-02-13T15:25:33.487Z,12.07
2023-02-13T15:28:04.177Z,13.33
2023-02-13T15:30:33.205Z,13.03
2023-02-13T15:33:02.369Z,15.00
2023-02-13T15:35:32.592Z,17.50
2023-02-13T15:38:01.597Z,14.70
2023-02-13T15:40:30.579Z,10.80
2023-02-13T15:42:59.382Z,17.10
2023-02-13T15:45:30.170Z,17.27
2023-02-13T15:47:59.016Z,14.63
2023-02-13T15:50:30.616Z,13.07
2023-02-13T15:52:59.453Z,12.93
2023-02-13T15:55:28.848Z,15.63
2023-02-13T15:57:58.766Z,13.23
2023-02-13T16:00:28.017Z,13.93
2023-02-13T16:02:58.455Z,13.03
2023-02-13T16:05:39.549Z,14.13
2023-02-13T16:08:26.613Z,15.27
2023-02-13T16:11:09.686Z,11.57
2023-02-13T16:13:37.970Z,14.17
2023-02-13T16:16:10.625Z,13.30
2023-02-13T16:18:41.754Z,12.00
2023-02-13T16:21:10.318Z,11.27
2023-02-13T16:23:38.609Z,17.03
2023-02-13T16:26:12.366Z,12.43
2023-02-13T16:28:40.500Z,12.70
2023-02-13T16:31:08.813Z,14.57
2023-02-13T16:33:37.562Z,14.30
2023-02-13T16:36:20.484Z,13.33
2023-02-13T16:38:49.292Z,15.07
2023-02-13T16:41:34.634Z,14.33
2023-02-13T16:44:03.008Z,11.20
2023-02-13T16:46:32.817Z,10.57
2023-02-13T16:49:06.769Z,11.90
2023-02-13T16:51:38.552Z,15.10
2023-02-13T16:54:08.070Z,14.00
2023-02-13T16:56:39.477Z,13.70
2023-02-13T16:59:16.343Z,15.67
2023-02-13T17:01:44.621Z,13.57
2023-02-13T17:04:17.044Z,12.10
2023-02-13T17:06:46.590Z,11.33
2023-02-13T17:09:14.721Z,14.53
2023-02-13T17:11:42.895Z,12.80
2023-02-13T17:14:11.031Z,10.03
2023-02-13T17:16:39.246Z,11.37
2023-02-13T17:19:07.515Z,13.57
2023-02-13T17:21:35.857Z,14.60
2023-02-13T17:24:05.552Z,13.23
2023-02-13T17:26:33.814Z,12.50
2023-02-13T17:29:01.970Z,10.13
2023-02-13T17:31:30.289Z,15.00
2023-02-13T17:33:58.432Z,12.77
2023-02-13T17:36:26.583Z,11.80
2023-02-13T17:38:54.744Z,11.50
2023-02-13T17:41:24.301Z,9.80
2023-02-13T17:43:52.435Z,12.17
2023-02-13T17:46:20.781Z,11.37
2023-02-13T17:48:49.046Z,13.90
2023-02-13T17:51:17.246Z,15.47
2023-02-13T17:53:46.438Z,14.43
2023-02-13T17:56:14.639Z,14.00
2023-02-13T17:58:44.146Z,12.43
2023-02-13T18:01:13.240Z,11.43
2023-02-13T18:03:41.442Z,11.43
2023-02-13T18:06:12.529Z,14.60
2023-02-13T18:08:40.679Z,15.07
2023-02-13T18:11:11.183Z,10.97
2023-02-13T18:13:43.889Z,13.33
2023-02-13T18:16:13.696Z,12.90
2023-02-13T18:18:41.853Z,13.73
2023-02-13T18:21:11.919Z,12.57
2023-02-13T18:23:40.762Z,10.97
2023-02-13T18:26:10.073Z,10.80
2023-02-13T18:28:38.754Z,15.47
2023-02-13T18:31:07.017Z,10.83
2023-02-13T18:33:37.397Z,15.33
2023-02-13T18:36:05.768Z,14.17
2023-02-13T18:38:33.915Z,14.80
2023-02-13T18:41:02.044Z,15.03
2023-02-13T18:43:30.189Z,11.77
2023-02-13T18:45:58.440Z,12.73
2023-02-13T18:48:26.648Z,10.70
2023-02-13T18:50:56.428Z,15.23
2023-02-13T18:53:25.063Z,14.00
2023-02-13T18:56:00.478Z,14.83
2023-02-13T18:58:28.633Z,16.13
2023-02-13T19:00:57.162Z,12.07
2023-02-13T19:03:25.640Z,12.87
2023-02-13T19:05:53.799Z,12.70
2023-02-13T19:08:23.319Z,11.70
2023-02-13T19:10:51.478Z,11.30
2023-02-13T19:13:19.657Z,11.20
2023-02-13T19:15:47.827Z,11.63
2023-02-13T19:18:16.045Z,12.93
2023-02-13T19:20:44.261Z,13.40
2023-02-13T19:23:12.392Z,10.50
2023-02-13T19:25:41.884Z,11.90
2023-02-13T19:28:10.032Z,11.90
2023-02-13T19:30:38.654Z,12.73
2023-02-13T19:33:06.860Z,10.83
2023-02-13T19:35:34.995Z,8.93
2023-02-13T19:38:03.261Z,11.47
2023-02-13T19:40:31.454Z,11.67
2023-02-13T19:43:00.945Z,10.10
2023-02-13T19:45:29.094Z,9.47
2023-02-13T19:47:57.252Z,8.60
2023-02-13T19:50:25.407Z,7.57
2023-02-13T19:52:53.593Z,9.60
2023-02-13T19:55:25.514Z,10.47
2023-02-13T19:57:53.646Z,9.30
2023-02-13T20:00:23.445Z,9.20
2023-02-13T20:02:53.269Z,9.97
2023-02-13T20:05:21.434Z,11.30
2023-02-13T20:07:49.701Z,12.20
2023-02-13T20:10:17.917Z,9.80
2023-02-13T20:12:46.145Z,9.37
2023-02-13T20:15:14.300Z,9.37
2023-02-13T20:17:43.806Z,14.10
2023-02-13T20:20:12.587Z,9.50
2023-02-13T20:22:40.759Z,10.20
2023-02-13T20:25:09.114Z,8.77
2023-02-13T20:27:42.028Z,7.47
2023-02-13T20:30:14.390Z,8.53
2023-02-13T20:32:44.185Z,9.40
2023-02-13T20:35:12.371Z,7.97
2023-02-13T20:37:40.523Z,12.03
2023-02-13T20:40:09.436Z,12.47
2023-02-13T20:42:37.620Z,9.33
2023-02-13T20:45:06.197Z,10.57
2023-02-13T20:47:34.422Z,12.90
2023-02-13T20:50:03.926Z,9.97
2023-02-13T20:52:32.087Z,11.60
2023-02-13T20:55:01.226Z,9.30
2023-02-13T20:57:29.817Z,10.17
2023-02-13T20:59:57.967Z,10.53
2023-02-13T21:02:26.197Z,12.37
2023-02-13T21:04:54.358Z,10.10
2023-02-13T21:07:23.943Z,10.10
2023-02-13T21:09:52.075Z,11.60
2023-02-13T21:12:20.286Z,12.50
2023-02-13T21:14:48.508Z,9.77
2023-02-13T21:17:16.658Z,12.60
2023-02-13T21:19:44.877Z,10.20
2023-02-13T21:22:13.013Z,9.97
2023-02-13T21:24:43.209Z,9.10
2023-02-13T21:27:11.664Z,10.53
2023-02-13T21:29:39.858Z,8.87
2023-02-13T21:32:08.095Z,10.10
2023-02-13T21:34:36.306Z,7.53
2023-02-13T21:37:04.455Z,8.03
2023-02-13T21:39:32.662Z,8.07
2023-02-13T21:42:04.326Z,8.97
2023-02-13T21:44:33.477Z,9.07
2023-02-13T21:47:01.713Z,10.80
2023-02-13T21:49:30.080Z,9.90
2023-02-13T21:51:58.247Z,7.33
2023-02-13T21:54:26.533Z,9.10
2023-02-13T21:56:54.684Z,9.63
2023-02-13T21:59:24.248Z,8.27
2023-02-13T22:01:52.604Z,10.50
2023-02-13T22:04:20.957Z,11.73
2023-02-13T22:06:50.868Z,10.07
2023-02-13T22:09:19.755Z,9.27
2023-02-13T22:11:48.745Z,9.60
2023-02-13T22:14:18.668Z,9.27
2023-02-13T22:16:50.881Z,9.00
2023-02-13T22:19:20.120Z,9.13
2023-02-13T22:21:48.250Z,9.57
2023-02-13T22:24:16.907Z,8.37
2023-02-13T22:26:48.828Z,9.07
2023-02-13T22:29:18.334Z,9.30
2023-02-13T22:31:48.381Z,10.53
2023-02-13T22:34:17.005Z,12.17
2023-02-13T22:36:45.178Z,8.90
2023-02-13T22:39:13.753Z,8.10
2023-02-13T22:41:44.421Z,11.13
2023-02-13T22:44:12.591Z,10.80
2023-02-13T22:46:40.893Z,10.27
2023-02-13T22:49:10.436Z,12.97
2023-02-13T22:51:38.621Z,10.87
2023-02-13T22:54:06.812Z,11.43
2023-02-13T22:56:35.366Z,12.37
2023-02-13T22:59:03.539Z,14.50
2023-02-13T23:01:31.908Z,11.87
2023-02-13T23:04:00.264Z,13.43
2023-02-13T23:06:30.000Z,17.70
2023-02-13T23:08:58.802Z,15.53
2023-02-13T23:11:45.796Z,14.13
2023-02-13T23:14:13.988Z,13.20
2023-02-13T23:17:00.651Z,11.83
2023-02-13T23:19:29.787Z,11.93
2023-02-13T23:21:59.426Z,11.10
2023-02-13T23:24:27.605Z,9.73
2023-02-13T23:26:55.732Z,12.73
2023-02-13T23:29:23.992Z,9.50
2023-02-13T23:31:52.204Z,9.67
2023-02-13T23:34:20.635Z,8.03
2023-02-13T23:36:48.982Z,9.70
2023-02-13T23:39:18.843Z,11.50
2023-02-13T23:41:46.966Z,7.63
2023-02-13T23:44:15.118Z,9.23
2023-02-13T23:46:43.336Z,8.47
2023-02-13T23:49:11.606Z,8.80
2023-02-13T23:51:39.766Z,11.43
2023-02-13T23:54:07.975Z,7.77
2023-02-13T23:56:37.468Z,8.30
2023-02-13T23:59:05.620Z,9.40
